createdAt,value
2019-04-30T00:01:28.113Z,98531.00
2019-04-30T00:04:03.251Z,98528.00
2019-04-30T00:06:34.275Z,98523.00
2019-04-30T00:08:59.660Z,98529.00
2019-04-30T00:11:26.909Z,98524.00
2019-04-30T00:13:56.582Z,98531.00
2019-04-30T00:16:25.256Z,98528.00
2019-04-30T00:18:58.256Z,98523.00
2019-04-30T00:21:21.850Z,98521.00
2019-04-30T00:23:49.328Z,98519.00
2019-04-30T00:26:17.318Z,98526.00
2019-04-30T00:28:47.725Z,98513.00
2019-04-30T00:31:17.295Z,98509.00
2019-04-30T00:33:44.995Z,98492.00
2019-04-30T00:36:14.848Z,98495.00
2019-04-30T00:38:42.205Z,98497.00
2019-04-30T00:41:10.210Z,98496.00
2019-04-30T00:43:41.988Z,98495.00
2019-04-30T00:46:29.307Z,98487.00
2019-04-30T00:49:08.536Z,98484.00
2019-04-30T00:51:26.245Z,98494.00
2019-04-30T00:53:55.645Z,98488.00
2019-04-30T00:56:28.072Z,98486.00
2019-04-30T00:58:55.434Z,98483.00
2019-04-30T01:01:25.279Z,98479.00
2019-04-30T01:03:55.836Z,98484.00
2019-04-30T01:06:28.614Z,98481.00
2019-04-30T01:08:59.285Z,98474.00
2019-04-30T01:11:25.368Z,98469.00
2019-04-30T01:13:53.991Z,98461.00
2019-04-30T01:16:23.707Z,98461.00
2019-04-30T01:18:50.886Z,98462.00
2019-04-30T01:21:19.005Z,98455.00
2019-04-30T01:23:51.812Z,98452.00
2019-04-30T01:26:18.733Z,98457.00
2019-04-30T01:28:46.219Z,98446.00
2019-04-30T01:31:13.686Z,98455.00
2019-04-30T01:33:41.046Z,98447.00
2019-04-30T01:36:12.016Z,98444.00
2019-04-30T01:38:40.080Z,98446.00
2019-04-30T01:41:09.468Z,98439.00
2019-04-30T01:43:38.586Z,98433.00
2019-04-30T01:46:09.268Z,98433.00
2019-04-30T01:48:35.206Z,98432.00
2019-04-30T01:51:03.488Z,98426.00
2019-04-30T01:53:30.925Z,98417.00
2019-04-30T01:55:59.886Z,98418.00
2019-04-30T01:58:33.360Z,98415.00
2019-04-30T02:01:05.585Z,98413.00
2019-04-30T02:03:32.725Z,98408.00
2019-04-30T02:05:59.888Z,98402.00
2019-04-30T02:08:29.375Z,98398.00
2019-04-30T02:10:56.746Z,98392.00
2019-04-30T02:13:24.134Z,98385.00
2019-04-30T02:15:51.506Z,98383.00
2019-04-30T02:18:19.559Z,98378.00
2019-04-30T02:20:49.755Z,98370.00
2019-04-30T02:23:17.185Z,98373.00
2019-04-30T02:25:45.784Z,98379.00
2019-04-30T02:28:13.445Z,98373.00
2019-04-30T02:30:40.706Z,98377.00
2019-04-30T02:33:09.618Z,98377.00
2019-04-30T02:35:40.819Z,98377.00
2019-04-30T02:38:20.125Z,98372.00
2019-04-30T02:40:49.789Z,98381.00
2019-04-30T02:43:20.370Z,98381.00
2019-04-30T02:45:59.948Z,98378.00
2019-04-30T02:48:32.373Z,98368.00
2019-04-30T02:51:02.538Z,98364.00
2019-04-30T02:54:09.550Z,98363.00
2019-04-30T02:56:36.155Z,98368.00
2019-04-30T02:59:04.074Z,98366.00
2019-04-30T03:01:31.327Z,98361.00
2019-04-30T03:03:59.819Z,98370.00
2019-04-30T03:06:29.714Z,98372.00
2019-04-30T03:09:00.696Z,98368.00
2019-04-30T03:11:29.847Z,98373.00
2019-04-30T03:13:59.063Z,98370.00
2019-04-30T03:16:36.825Z,98372.00
2019-04-30T03:19:21.347Z,98383.00
2019-04-30T03:21:56.347Z,98378.00
2019-04-30T03:24:24.455Z,98386.00
2019-04-30T03:26:51.935Z,98388.00
2019-04-30T03:29:23.480Z,98383.00
2019-04-30T03:31:51.869Z,98381.00
2019-04-30T03:34:25.288Z,98384.00
2019-04-30T03:36:50.195Z,98382.00
2019-04-30T03:39:19.871Z,98390.00
2019-04-30T03:41:49.912Z,98381.00
2019-04-30T03:44:22.530Z,98380.00
2019-04-30T03:46:45.977Z,98379.00
2019-04-30T03:49:13.694Z,98376.00
2019-04-30T03:51:41.336Z,98366.00
2019-04-30T03:54:10.120Z,98365.00
2019-04-30T03:56:39.632Z,98369.00
2019-04-30T03:59:10.655Z,98365.00
2019-04-30T04:01:41.807Z,98367.00
2019-04-30T04:04:16.706Z,98356.00
2019-04-30T04:07:02.927Z,98362.00
2019-04-30T04:09:31.765Z,98362.00
2019-04-30T04:12:00.985Z,98354.00
2019-04-30T04:14:29.664Z,98357.00
2019-04-30T04:16:56.936Z,98348.00
2019-04-30T04:19:24.348Z,98353.00
2019-04-30T04:21:51.646Z,98358.00
2019-04-30T04:24:20.489Z,98355.00
2019-04-30T04:26:50.165Z,98359.00
2019-04-30T04:29:19.662Z,98349.00
2019-04-30T04:31:49.764Z,98353.00
2019-04-30T04:34:16.247Z,98345.00
2019-04-30T04:36:43.765Z,98350.00
2019-04-30T04:39:11.086Z,98350.00
2019-04-30T04:41:39.874Z,98349.00
2019-04-30T04:44:09.994Z,98347.00
2019-04-30T04:46:40.065Z,98346.00
2019-04-30T04:49:09.007Z,98353.00
2019-04-30T04:51:39.545Z,98357.00
2019-04-30T04:54:06.106Z,98358.00
2019-04-30T04:56:33.434Z,98357.00
2019-04-30T04:59:00.873Z,98363.00
2019-04-30T05:01:28.927Z,98370.00
2019-04-30T05:03:56.207Z,98370.00
2019-04-30T05:06:25.508Z,98377.00
2019-04-30T05:08:53.166Z,98369.00
2019-04-30T05:11:21.055Z,98375.00
2019-04-30T05:13:48.991Z,98372.00
2019-04-30T05:16:19.041Z,98372.00
2019-04-30T05:18:48.666Z,98381.00
2019-04-30T05:21:16.177Z,98375.00
2019-04-30T05:23:43.859Z,98378.00
2019-04-30T05:26:11.264Z,98369.00
2019-04-30T05:28:39.398Z,98375.00
2019-04-30T05:31:08.720Z,98364.00
2019-04-30T05:33:36.347Z,98366.00
2019-04-30T05:36:04.925Z,98357.00
2019-04-30T05:38:32.385Z,98353.00
2019-04-30T05:40:59.682Z,98348.00
2019-04-30T05:43:28.991Z,98351.00
2019-04-30T05:45:58.538Z,98356.00
2019-04-30T05:48:25.766Z,98349.00
2019-04-30T05:50:56.022Z,98359.00
2019-04-30T05:53:22.738Z,98357.00
2019-04-30T05:55:50.398Z,98353.00
2019-04-30T05:58:19.822Z,98363.00
2019-04-30T06:00:49.776Z,98349.00
2019-04-30T06:03:27.638Z,98358.00
2019-04-30T06:05:46.618Z,98357.00
2019-04-30T06:08:19.119Z,98351.00
2019-04-30T06:11:03.372Z,98344.00
2019-04-30T06:13:49.296Z,98346.00
2019-04-30T06:16:18.865Z,98351.00
2019-04-30T06:18:48.520Z,98347.00
2019-04-30T06:21:16.172Z,98348.00
2019-04-30T06:23:44.691Z,98349.00
2019-04-30T06:26:13.325Z,98352.00
2019-04-30T06:28:41.639Z,98352.00
2019-04-30T06:31:09.320Z,98348.00
2019-04-30T06:33:38.899Z,98346.00
2019-04-30T06:36:08.566Z,98353.00
2019-04-30T06:38:38.701Z,98351.00
2019-04-30T06:41:06.122Z,98350.00
2019-04-30T06:43:34.619Z,98341.00
2019-04-30T06:46:02.891Z,98347.00
2019-04-30T06:48:33.032Z,98344.00
2019-04-30T06:51:00.472Z,98353.00
2019-04-30T06:53:29.223Z,98352.00
2019-04-30T06:55:58.855Z,98340.00
2019-04-30T06:58:29.199Z,98347.00
2019-04-30T07:00:56.632Z,98346.00
2019-04-30T07:03:23.892Z,98350.00
2019-04-30T07:05:51.051Z,98345.00
2019-04-30T07:08:36.352Z,98344.00
2019-04-30T07:11:14.432Z,98352.00
2019-04-30T07:13:42.551Z,98353.00
2019-04-30T07:16:11.011Z,98362.00
2019-04-30T07:18:38.832Z,98361.00
2019-04-30T07:21:06.194Z,98357.00
2019-04-30T07:23:34.071Z,98358.00
2019-04-30T07:26:01.491Z,98353.00
2019-04-30T07:28:43.256Z,98353.00
2019-04-30T07:33:29.540Z,98344.00
2019-04-30T07:36:01.523Z,98350.00
2019-04-30T07:38:29.530Z,98342.00
2019-04-30T07:40:59.131Z,98346.00
2019-04-30T07:43:28.818Z,98349.00
2019-04-30T07:45:56.332Z,98351.00
2019-04-30T07:48:26.459Z,98346.00
2019-04-30T07:50:53.033Z,98347.00
2019-04-30T07:53:20.495Z,98354.00
2019-04-30T07:55:49.413Z,98355.00
2019-04-30T07:58:20.187Z,98353.00
2019-04-30T08:00:46.512Z,98357.00
2019-04-30T08:03:32.691Z,98360.00
2019-04-30T08:06:02.371Z,98357.00
2019-04-30T08:08:30.407Z,98352.00
2019-04-30T08:09:34.156Z,98352.00
2019-04-30T08:10:59.970Z,98351.00
2019-04-30T08:13:31.879Z,98347.00
2019-04-30T08:15:56.811Z,98352.00
2019-04-30T08:18:24.060Z,98351.00
2019-04-30T08:20:51.720Z,98358.00
2019-04-30T08:23:33.477Z,98369.00
2019-04-30T08:25:49.721Z,98378.00
2019-04-30T08:28:18.710Z,98373.00
2019-04-30T08:30:48.987Z,98368.00
2019-04-30T08:33:16.420Z,98375.00
2019-04-30T08:35:45.255Z,98369.00
2019-04-30T08:38:12.573Z,98370.00
2019-04-30T08:40:52.837Z,98381.00
2019-04-30T08:43:09.598Z,98382.00
2019-04-30T08:45:38.572Z,98378.00
2019-04-30T08:48:06.319Z,98389.00
2019-04-30T08:50:34.557Z,98391.00
2019-04-30T08:53:01.970Z,98393.00
2019-04-30T08:55:30.465Z,98392.00
2019-04-30T08:58:09.286Z,98404.00
2019-04-30T09:00:29.746Z,98407.00
2019-04-30T09:02:59.207Z,98408.00
2019-04-30T09:05:30.606Z,98408.00
2019-04-30T09:07:59.832Z,98407.00
2019-04-30T09:10:29.402Z,98410.00
2019-04-30T09:12:57.089Z,98408.00
2019-04-30T09:15:24.831Z,98409.00
2019-04-30T09:18:00.780Z,98411.00
2019-04-30T09:20:22.730Z,98423.00
2019-04-30T09:22:50.087Z,98416.00
2019-04-30T09:25:19.483Z,98419.00
2019-04-30T09:27:48.806Z,98413.00
2019-04-30T09:30:16.350Z,98414.00
2019-04-30T09:32:43.950Z,98413.00
2019-04-30T09:35:12.873Z,98407.00
2019-04-30T09:37:41.715Z,98414.00
2019-04-30T09:40:17.942Z,98413.00
2019-04-30T09:42:39.930Z,98411.00
2019-04-30T09:45:08.784Z,98405.00
2019-04-30T09:47:36.190Z,98403.00
2019-04-30T09:50:05.030Z,98407.00
2019-04-30T09:52:35.693Z,98401.00
2019-04-30T09:55:02.756Z,98406.00
2019-04-30T09:57:30.389Z,98404.00
2019-04-30T09:59:57.790Z,98403.00
2019-04-30T10:02:25.129Z,98402.00
2019-04-30T10:04:54.617Z,98402.00
2019-04-30T10:07:22.289Z,98406.00
2019-04-30T10:09:51.190Z,98397.00
2019-04-30T10:12:19.557Z,98385.00
2019-04-30T10:14:46.914Z,98379.00
2019-04-30T10:17:17.770Z,98377.00
2019-04-30T10:19:45.190Z,98385.00
2019-04-30T10:22:13.790Z,98379.00
2019-04-30T10:24:41.492Z,98368.00
2019-04-30T10:27:12.981Z,98365.00
2019-04-30T10:29:39.486Z,98372.00
2019-04-30T10:32:09.246Z,98364.00
2019-04-30T10:34:36.599Z,98370.00
2019-04-30T10:37:04.372Z,98375.00
2019-04-30T10:39:32.078Z,98376.00
2019-04-30T10:41:59.379Z,98383.00
2019-04-30T10:44:26.721Z,98372.00
2019-04-30T10:46:54.307Z,98378.00
2019-04-30T10:49:21.645Z,98371.00
2019-04-30T10:51:49.453Z,98368.00
2019-04-30T10:54:24.085Z,98375.00
2019-04-30T10:56:51.104Z,98371.00
2019-04-30T10:59:16.359Z,98378.00
2019-04-30T11:01:44.067Z,98378.00
2019-04-30T11:04:12.727Z,98375.00
2019-04-30T11:06:39.948Z,98377.00
2019-04-30T11:09:07.428Z,98381.00
2019-04-30T11:11:34.659Z,98378.00
2019-04-30T11:14:01.809Z,98371.00
2019-04-30T11:16:29.732Z,98372.00
2019-04-30T11:18:58.953Z,98375.00
2019-04-30T11:21:26.622Z,98380.00
2019-04-30T11:23:55.431Z,98374.00
2019-04-30T11:26:23.446Z,98376.00
2019-04-30T11:28:51.343Z,98383.00
2019-04-30T11:31:23.762Z,98376.00
2019-04-30T11:33:55.239Z,98378.00
2019-04-30T11:36:26.180Z,98373.00
2019-04-30T11:38:53.599Z,98378.00
2019-04-30T11:41:30.008Z,98378.00
2019-04-30T11:43:51.687Z,98393.00
2019-04-30T11:46:28.705Z,98382.00
2019-04-30T11:48:56.219Z,98372.00
2019-04-30T11:51:23.591Z,98383.00
2019-04-30T11:53:50.987Z,98383.00
2019-04-30T11:56:18.760Z,98388.00
2019-04-30T11:58:45.899Z,98385.00
2019-04-30T12:01:16.026Z,98382.00
2019-04-30T12:03:43.619Z,98383.00
2019-04-30T12:06:11.413Z,98386.00
2019-04-30T12:08:46.614Z,98392.00
2019-04-30T12:11:18.613Z,98383.00
2019-04-30T12:13:46.053Z,98395.00
2019-04-30T12:16:13.392Z,98392.00
2019-04-30T12:18:42.573Z,98389.00
2019-04-30T12:21:10.228Z,98396.00
2019-04-30T12:23:37.492Z,98392.00
2019-04-30T12:26:04.873Z,98402.00
2019-04-30T12:28:32.437Z,98404.00
2019-04-30T12:31:00.577Z,98395.00
2019-04-30T12:33:28.373Z,98389.00
2019-04-30T12:35:55.592Z,98396.00
2019-04-30T12:38:24.593Z,98398.00
2019-04-30T12:40:51.968Z,98398.00
2019-04-30T12:43:20.543Z,98392.00
2019-04-30T12:46:01.845Z,98396.00
2019-04-30T12:48:23.745Z,98392.00
2019-04-30T12:50:59.183Z,98397.00
2019-04-30T12:53:44.983Z,98396.00
2019-04-30T12:56:17.244Z,98399.00
2019-04-30T12:58:44.683Z,98392.00
2019-04-30T13:01:12.245Z,98403.00
2019-04-30T13:03:39.931Z,98407.00
2019-04-30T13:06:10.727Z,98404.00
2019-04-30T13:08:38.054Z,98398.00
2019-04-30T13:11:07.833Z,98401.00
2019-04-30T13:13:40.186Z,98401.00
2019-04-30T13:16:08.433Z,98405.00
2019-04-30T13:18:35.893Z,98405.00
2019-04-30T13:21:03.763Z,98400.00
2019-04-30T13:23:31.453Z,98398.00
2019-04-30T13:26:01.045Z,98397.00
2019-04-30T13:28:48.033Z,98396.00
2019-04-30T13:31:15.413Z,98397.00
2019-04-30T13:33:45.159Z,98385.00
2019-04-30T13:36:14.278Z,98386.00
2019-04-30T13:38:49.012Z,98385.00
2019-04-30T13:41:14.977Z,98383.00
2019-04-30T13:43:53.456Z,98383.00
2019-04-30T13:46:21.634Z,98376.00
2019-04-30T13:48:48.914Z,98372.00
2019-04-30T13:51:16.249Z,98373.00
2019-04-30T13:53:43.274Z,98364.00
2019-04-30T13:56:11.052Z,98362.00
2019-04-30T13:58:38.415Z,98370.00
2019-04-30T14:01:06.248Z,98377.00
2019-04-30T14:03:44.910Z,98376.00
2019-04-30T14:06:14.189Z,98380.00
2019-04-30T14:08:46.169Z,98366.00
2019-04-30T14:11:13.509Z,98378.00
2019-04-30T14:13:40.901Z,98373.00
2019-04-30T14:16:08.321Z,98368.00
2019-04-30T14:18:35.675Z,98367.00
2019-04-30T14:21:03.015Z,98363.00
2019-04-30T14:23:30.491Z,98360.00
2019-04-30T14:26:00.826Z,98358.00
2019-04-30T14:28:29.153Z,98361.00
2019-04-30T14:30:56.507Z,98364.00
2019-04-30T14:33:26.760Z,98369.00
2019-04-30T14:35:54.297Z,98372.00
2019-04-30T14:38:21.569Z,98374.00
2019-04-30T14:40:55.610Z,98365.00
2019-04-30T14:43:25.974Z,98364.00
2019-04-30T14:45:55.771Z,98351.00
2019-04-30T14:48:32.106Z,98339.00
2019-04-30T14:50:59.959Z,98353.00
2019-04-30T14:53:41.020Z,98348.00
2019-04-30T14:56:11.656Z,98353.00
2019-04-30T14:58:46.984Z,98363.00
2019-04-30T15:01:19.435Z,98354.00
2019-04-30T15:03:47.214Z,98353.00
2019-04-30T15:06:15.889Z,98359.00
2019-04-30T15:08:43.203Z,98368.00
2019-04-30T15:11:11.460Z,98366.00
2019-04-30T15:13:39.494Z,98370.00
2019-04-30T15:16:07.377Z,98378.00
2019-04-30T15:18:34.686Z,98393.00
2019-04-30T15:21:02.277Z,98397.00
2019-04-30T15:23:57.979Z,98376.00
2019-04-30T15:26:22.999Z,98356.00
2019-04-30T15:28:46.452Z,98361.00
2019-04-30T15:31:13.969Z,98354.00
2019-04-30T15:33:43.201Z,98361.00
2019-04-30T15:36:10.778Z,98359.00
2019-04-30T15:38:55.319Z,98349.00
2019-04-30T15:41:22.971Z,98366.00
2019-04-30T15:43:50.140Z,98360.00
2019-04-30T15:46:17.246Z,98368.00
2019-04-30T15:48:44.406Z,98377.00
2019-04-30T15:51:11.787Z,98378.00
2019-04-30T15:53:38.927Z,98380.00
2019-04-30T15:56:06.041Z,98367.00
2019-04-30T15:58:36.127Z,98361.00
2019-04-30T16:01:05.344Z,98336.00
2019-04-30T16:03:39.868Z,98330.00
2019-04-30T16:06:08.345Z,98311.00
2019-04-30T16:08:46.451Z,98313.00
2019-04-30T16:11:19.485Z,98315.00
2019-04-30T16:14:05.177Z,98302.00
2019-04-30T16:16:34.167Z,98291.00
2019-04-30T16:19:01.267Z,98282.00
2019-04-30T16:21:29.266Z,98288.00
2019-04-30T16:23:58.163Z,98282.00
2019-04-30T16:26:26.754Z,98293.00
2019-04-30T16:28:53.927Z,98287.00
2019-04-30T16:31:21.347Z,98294.00
2019-04-30T16:33:49.191Z,98295.00
2019-04-30T16:36:16.499Z,98292.00
2019-04-30T16:38:43.600Z,98286.00
2019-04-30T16:41:10.860Z,98286.00
2019-04-30T16:43:38.831Z,98302.00
2019-04-30T16:46:07.900Z,98316.00
2019-04-30T16:48:35.000Z,98315.00
2019-04-30T16:51:03.461Z,98318.00
2019-04-30T16:53:31.059Z,98334.00
2019-04-30T16:55:58.672Z,98335.00
2019-04-30T16:58:25.740Z,98331.00
2019-04-30T17:00:54.721Z,98337.00
2019-04-30T17:03:28.324Z,98334.00
2019-04-30T17:06:00.759Z,98335.00
2019-04-30T17:08:35.939Z,98334.00
2019-04-30T17:11:05.219Z,98344.00
2019-04-30T17:13:38.888Z,98347.00
2019-04-30T17:16:10.976Z,98347.00
2019-04-30T17:18:38.774Z,98352.00
2019-04-30T17:21:06.619Z,98350.00
2019-04-30T17:23:33.780Z,98354.00
2019-04-30T17:26:01.481Z,98347.00
2019-04-30T17:28:28.948Z,98353.00
2019-04-30T17:30:58.916Z,98353.00
2019-04-30T17:33:26.660Z,98361.00
2019-04-30T17:35:56.540Z,98363.00
2019-04-30T17:38:23.940Z,98366.00
2019-04-30T17:40:51.180Z,98362.00
2019-04-30T17:43:19.780Z,98353.00
2019-04-30T17:45:49.169Z,98361.00
2019-04-30T17:48:17.280Z,98363.00
2019-04-30T17:50:44.701Z,98366.00
2019-04-30T17:53:13.281Z,98369.00
2019-04-30T17:55:40.741Z,98363.00
2019-04-30T17:58:09.786Z,98379.00
2019-04-30T18:00:39.362Z,98387.00
2019-04-30T18:03:08.849Z,98379.00
2019-04-30T18:05:36.540Z,98389.00
2019-04-30T18:08:03.860Z,98387.00
2019-04-30T18:10:31.762Z,98389.00
2019-04-30T18:13:00.300Z,98389.00
2019-04-30T18:15:29.380Z,98391.00
2019-04-30T18:18:13.262Z,98400.00
2019-04-30T18:20:42.659Z,98408.00
2019-04-30T18:23:24.323Z,98410.00
2019-04-30T18:25:56.076Z,98412.00
2019-04-30T18:28:23.424Z,98416.00
2019-04-30T18:30:51.620Z,98413.00
2019-04-30T18:33:20.099Z,98422.00
2019-04-30T18:35:48.689Z,98424.00
2019-04-30T18:38:17.893Z,98428.00
2019-04-30T18:40:45.639Z,98428.00
2019-04-30T18:43:13.261Z,98434.00
2019-04-30T18:45:41.160Z,98445.00
2019-04-30T18:48:09.695Z,98452.00
2019-04-30T18:50:37.621Z,98446.00
2019-04-30T18:53:08.701Z,98445.00
2019-04-30T18:55:36.613Z,98455.00
2019-04-30T18:58:03.890Z,98451.00
2019-04-30T19:00:39.512Z,98455.00
2019-04-30T19:03:08.664Z,98462.00
2019-04-30T19:05:39.154Z,98471.00
2019-04-30T19:08:10.691Z,98466.00
2019-04-30T19:10:56.210Z,98475.00
2019-04-30T19:13:29.854Z,98482.00
2019-04-30T19:16:24.764Z,98483.00
2019-04-30T19:19:06.392Z,98477.00
2019-04-30T19:21:34.011Z,98483.00
2019-04-30T19:24:02.092Z,98490.00
2019-04-30T19:26:30.632Z,98486.00
2019-04-30T19:28:57.911Z,98492.00
2019-04-30T19:31:26.613Z,98493.00
2019-04-30T19:33:54.051Z,98494.00
2019-04-30T19:36:33.924Z,98495.00
2019-04-30T19:38:50.863Z,98496.00
2019-04-30T19:41:18.946Z,98505.00
2019-04-30T19:43:46.237Z,98498.00
2019-04-30T19:46:13.490Z,98510.00
2019-04-30T19:48:40.951Z,98507.00
2019-04-30T19:51:09.491Z,98511.00
2019-04-30T19:53:36.891Z,98504.00
2019-04-30T19:56:04.006Z,98513.00
2019-04-30T19:58:47.556Z,98514.00
2019-04-30T20:01:02.545Z,98508.00
2019-04-30T20:03:29.774Z,98508.00
2019-04-30T20:05:58.623Z,98513.00
2019-04-30T20:08:26.014Z,98515.00
2019-04-30T20:10:53.374Z,98512.00
2019-04-30T20:13:31.371Z,98506.00
2019-04-30T20:15:50.296Z,98509.00
2019-04-30T20:18:19.033Z,98515.00
2019-04-30T20:20:51.892Z,98513.00
2019-04-30T20:23:19.300Z,98515.00
2019-04-30T20:25:48.335Z,98510.00
2019-04-30T20:28:16.988Z,98513.00
2019-04-30T20:30:44.455Z,98519.00
2019-04-30T20:33:12.042Z,98514.00
2019-04-30T20:35:41.177Z,98523.00
2019-04-30T20:38:27.091Z,98522.00
2019-04-30T20:40:59.992Z,98517.00
2019-04-30T20:43:23.518Z,98521.00
2019-04-30T20:45:50.853Z,98522.00
2019-04-30T20:48:18.860Z,98518.00
2019-04-30T20:50:46.470Z,98516.00
2019-04-30T20:53:13.770Z,98514.00
2019-04-30T20:58:09.950Z,98518.00
2019-04-30T21:00:38.432Z,98518.00
2019-04-30T21:03:06.186Z,98511.00
2019-04-30T21:05:34.632Z,98515.00
2019-04-30T21:08:01.912Z,98507.00
2019-04-30T21:10:29.698Z,98504.00
2019-04-30T21:12:57.171Z,98509.00
2019-04-30T21:15:25.110Z,98515.00
2019-04-30T21:17:52.572Z,98513.00
2019-04-30T21:20:20.111Z,98514.00
2019-04-30T21:22:49.113Z,98526.00
2019-04-30T21:25:16.571Z,98521.00
2019-04-30T21:27:44.011Z,98524.00
2019-04-30T21:30:13.331Z,98521.00
2019-04-30T21:32:54.815Z,98525.00
2019-04-30T21:35:23.852Z,98524.00
2019-04-30T21:37:51.091Z,98536.00
2019-04-30T21:40:19.602Z,98530.00
2019-04-30T21:42:47.115Z,98534.00
2019-04-30T21:45:14.551Z,98537.00
2019-04-30T21:47:41.919Z,98534.00
2019-04-30T21:50:10.224Z,98531.00
2019-04-30T21:52:40.349Z,98534.00
2019-04-30T21:55:09.639Z,98535.00
2019-04-30T21:57:36.912Z,98534.00
2019-04-30T22:00:33.591Z,98531.00
2019-04-30T22:03:01.111Z,98531.00
2019-04-30T22:05:28.611Z,98527.00
2019-04-30T22:07:56.051Z,98534.00
2019-04-30T22:10:23.311Z,98535.00
2019-04-30T22:12:52.171Z,98535.00
2019-04-30T22:15:19.352Z,98540.00
2019-04-30T22:17:46.731Z,98530.00
2019-04-30T22:20:14.254Z,98534.00
2019-04-30T22:22:41.654Z,98528.00
2019-04-30T22:25:09.652Z,98529.00
2019-04-30T22:27:36.673Z,98526.00
2019-04-30T22:30:08.132Z,98536.00
2019-04-30T22:32:35.431Z,98527.00
2019-04-30T22:35:26.753Z,98535.00
2019-04-30T22:37:55.732Z,98537.00
2019-04-30T22:43:10.611Z,98548.00
2019-04-30T22:45:42.835Z,98542.00
2019-04-30T22:48:10.337Z,98549.00
2019-04-30T22:50:37.795Z,98546.00
2019-04-30T22:53:04.955Z,98551.00
2019-04-30T22:55:33.936Z,98547.00
2019-04-30T22:58:01.621Z,98549.00
2019-04-30T23:00:30.895Z,98545.00
2019-04-30T23:03:00.196Z,98547.00
2019-04-30T23:05:28.695Z,98544.00
2019-04-30T23:07:55.875Z,98536.00
2019-04-30T23:10:23.999Z,98528.00
2019-04-30T23:12:51.975Z,98531.00
2019-04-30T23:15:21.077Z,98525.00
2019-04-30T23:17:48.211Z,98525.00
2019-04-30T23:20:16.009Z,98518.00
2019-04-30T23:22:43.455Z,98518.00
2019-04-30T23:25:11.795Z,98516.00
2019-04-30T23:27:39.435Z,98507.00
2019-04-30T23:30:08.597Z,98515.00
2019-04-30T23:32:36.257Z,98514.00
2019-04-30T23:35:04.336Z,98508.00
2019-04-30T23:37:31.536Z,98511.00
2019-04-30T23:40:29.739Z,98514.00
2019-04-30T23:42:57.399Z,98513.00
2019-04-30T23:45:25.359Z,98513.00
2019-04-30T23:47:52.797Z,98508.00
2019-04-30T23:50:21.596Z,98516.00
2019-04-30T23:52:49.278Z,98508.00
2019-04-30T23:55:18.128Z,98510.00
2019-04-30T23:57:45.175Z,98510.00
